Time;durP1;ratioP1;P1;durP2;ratioP2;P2;SDS_P1;SDS_P2;PMS_P1;PMS_P2;Temp;Humidity;BMP_temperature;BMP_pressure;BME280_temperature;BME280_humidity;BME280_pressure;Samples;Min_cycle;Max_cycle;Signal;HPM_P1;HPM_P2
2022/06/19 00:02:03;;;;;;;;;;;28.40;45.90;;;;;;5077945;28;20003;-62
2022/06/19 00:04:29;;;;;;;;;;;28.40;46.00;;;;;;5061118;28;20005;-62
2022/06/19 00:06:56;;;;;;;;;;;28.40;45.80;;;;;;5079149;28;19908;-62
2022/06/19 00:09:22;;;;;;;;;;;28.40;46.00;;;;;;5061331;28;19966;-62
2022/06/19 00:11:47;;;;;;;;;;;28.40;45.90;;;;;;5078951;28;19913;-62
2022/06/19 00:14:13;;;;;;;;;;;28.40;45.80;;;;;;5077072;28;19913;-62
2022/06/19 00:16:38;;;;;;;;;;;28.40;45.90;;;;;;5075880;28;19912;-62
2022/06/19 00:19:04;;;;;;;;;;;28.30;45.90;;;;;;5075619;28;19913;-61
2022/06/19 00:21:29;;;;;;;;;;;28.30;45.90;;;;;;5075711;28;20375;-62
2022/06/19 00:23:55;;;;;;;;;;;28.40;45.70;;;;;;5075728;28;20007;-62
2022/06/19 00:26:20;;;;;;;;;;;28.40;45.90;;;;;;5075595;28;19908;-62
2022/06/19 00:28:47;;;;;;;;;;;28.30;45.90;;;;;;5075522;28;19958;-62
2022/06/19 00:31:15;;;;;;;;;;;28.30;45.90;;;;;;5075485;28;20008;-62
2022/06/19 00:33:41;;;;;;;;;;;28.30;45.80;;;;;;5075366;28;20174;-62
2022/06/19 00:36:07;;;;;;;;;;;28.30;45.90;;;;;;5075646;28;20368;-62
2022/06/19 00:38:32;;;;;;;;;;;28.30;45.90;;;;;;5075275;28;19965;-62
2022/06/19 00:40:58;;;;;;;;;;;28.30;45.70;;;;;;5057457;28;19915;-62
2022/06/19 00:43:23;;;;;;;;;;;28.30;45.80;;;;;;5075299;28;19999;-62
2022/06/19 00:45:52;;;;;;;;;;;28.30;45.90;;;;;;5075295;28;20043;-62
2022/06/19 00:48:20;;;;;;;;;;;28.30;45.80;;;;;;5053773;28;19925;-62
2022/06/19 00:50:46;;;;;;;;;;;28.30;45.80;;;;;;5055203;28;19912;-62
2022/06/19 00:53:16;;;;;;;;;;;28.30;45.70;;;;;;5053890;28;20407;-62
2022/06/19 00:55:42;;;;;;;;;;;28.30;45.70;;;;;;5055306;28;19912;-62
2022/06/19 00:58:09;;;;;;;;;;;28.30;45.80;;;;;;5054957;28;20372;-62
2022/06/19 01:00:36;;;;;;;;;;;28.30;45.80;;;;;;5053848;28;19912;-62
2022/06/19 01:03:07;;;;;;;;;;;28.30;45.80;;;;;;5037643;28;19913;-62
2022/06/19 01:05:32;;;;;;;;;;;28.30;45.70;;;;;;5053650;28;19916;-62
2022/06/19 01:07:58;;;;;;;;;;;28.20;45.70;;;;;;5054924;28;19909;-62
2022/06/19 01:10:24;;;;;;;;;;;28.20;45.60;;;;;;5053601;28;19916;-62
2022/06/19 01:12:50;;;;;;;;;;;28.20;45.50;;;;;;5054836;28;19909;-62
2022/06/19 01:15:17;;;;;;;;;;;28.20;45.60;;;;;;5053521;28;19916;-62
2022/06/19 01:17:42;;;;;;;;;;;28.20;45.70;;;;;;5053520;28;19916;-62
2022/06/19 01:20:09;;;;;;;;;;;28.20;45.60;;;;;;5054565;28;19913;-62
2022/06/19 01:22:41;;;;;;;;;;;28.20;45.60;;;;;;5054801;28;19916;-62
2022/06/19 01:25:17;;;;;;;;;;;28.20;45.60;;;;;;5036609;28;19909;-62
2022/06/19 01:30:28;;;;;;;;;;;28.20;45.50;;;;;;5053426;28;20009;-62
2022/06/19 01:32:53;;;;;;;;;;;28.20;45.50;;;;;;5053145;28;20368;-62
2022/06/19 01:35:20;;;;;;;;;;;28.20;45.60;;;;;;5054256;28;19916;-62
2022/06/19 01:37:46;;;;;;;;;;;28.20;45.20;;;;;;5054373;28;19967;-62
2022/06/19 01:40:15;;;;;;;;;;;28.20;45.50;;;;;;5054291;28;20429;-62
2022/06/19 01:42:41;;;;;;;;;;;28.20;45.40;;;;;;5036330;28;19915;-62
2022/06/19 01:45:06;;;;;;;;;;;28.10;45.10;;;;;;5054134;28;19909;-62
2022/06/19 01:47:32;;;;;;;;;;;28.10;45.30;;;;;;5058876;28;20399;-62
2022/06/19 01:49:58;;;;;;;;;;;28.10;45.40;;;;;;5074067;28;19908;-62
2022/06/19 01:52:23;;;;;;;;;;;28.10;45.40;;;;;;5073976;28;19916;-62
2022/06/19 01:54:56;;;;;;;;;;;28.10;45.30;;;;;;5073974;28;20326;-62
2022/06/19 01:57:21;;;;;;;;;;;28.10;45.20;;;;;;5056071;28;19912;-62
2022/06/19 01:59:47;;;;;;;;;;;28.10;45.20;;;;;;5055846;28;19999;-62
2022/06/19 02:02:13;;;;;;;;;;;28.10;45.10;;;;;;5073953;28;19916;-62
2022/06/19 02:04:38;;;;;;;;;;;28.10;45.10;;;;;;5073728;28;19908;-62
2022/06/19 02:07:05;;;;;;;;;;;28.10;45.10;;;;;;5055831;28;19909;-62
2022/06/19 02:09:31;;;;;;;;;;;28.10;45.10;;;;;;5073546;28;20315;-62
2022/06/19 02:11:57;;;;;;;;;;;28.10;45.20;;;;;;5073566;28;19909;-62
2022/06/19 02:14:22;;;;;;;;;;;28.10;45.20;;;;;;5073439;28;20367;-62
2022/06/19 02:16:47;;;;;;;;;;;28.10;45.10;;;;;;5055773;28;19912;-62
2022/06/19 02:19:13;;;;;;;;;;;28.10;45.10;;;;;;5055522;28;19912;-62
2022/06/19 02:21:41;;;;;;;;;;;28.00;45.00;;;;;;5073536;28;20387;-62
2022/06/19 02:24:07;;;;;;;;;;;28.00;45.10;;;;;;5073733;28;19909;-62
2022/06/19 02:26:36;;;;;;;;;;;28.00;45.00;;;;;;5073477;28;20387;-62
2022/06/19 02:29:01;;;;;;;;;;;28.00;45.10;;;;;;5073540;28;19920;-62
2022/06/19 02:31:27;;;;;;;;;;;28.00;45.10;;;;;;5055315;28;19908;-62
2022/06/19 02:33:54;;;;;;;;;;;28.00;45.00;;;;;;5088916;28;20000;-62
2022/06/19 02:36:32;;;;;;;;;;;28.00;45.10;;;;;;5055511;28;19912;-62
2022/06/19 02:38:57;;;;;;;;;;;28.00;45.00;;;;;;5072495;28;19966;-62
2022/06/19 02:41:23;;;;;;;;;;;28.00;45.10;;;;;;5055219;28;19912;-62
2022/06/19 02:43:48;;;;;;;;;;;28.00;45.10;;;;;;5055404;28;19908;-62
2022/06/19 02:46:14;;;;;;;;;;;28.00;45.10;;;;;;5073200;28;19916;-62
2022/06/19 02:48:39;;;;;;;;;;;28.00;45.10;;;;;;5051672;28;20291;-62
2022/06/19 02:51:05;;;;;;;;;;;28.00;45.10;;;;;;5053096;28;19912;-62
2022/06/19 02:53:30;;;;;;;;;;;28.00;45.10;;;;;;5053027;28;19917;-62
2022/06/19 02:55:56;;;;;;;;;;;28.00;45.10;;;;;;5053102;28;19909;-62
2022/06/19 02:58:21;;;;;;;;;;;28.00;45.00;;;;;;5051531;28;20288;-62
2022/06/19 03:00:47;;;;;;;;;;;27.90;45.00;;;;;;5052946;28;19908;-62
2022/06/19 03:03:21;;;;;;;;;;;27.90;45.00;;;;;;5052738;28;19916;-62
2022/06/19 03:05:47;;;;;;;;;;;27.90;45.00;;;;;;5052931;28;19916;-62
2022/06/19 03:08:12;;;;;;;;;;;27.90;45.10;;;;;;5053030;28;19909;-62
2022/06/19 03:10:38;;;;;;;;;;;27.90;45.00;;;;;;5052924;28;20293;-62
2022/06/19 03:13:03;;;;;;;;;;;27.90;45.00;;;;;;5052956;28;19963;-62
2022/06/19 03:15:28;;;;;;;;;;;27.90;45.00;;;;;;5052781;28;19955;-62
2022/06/19 03:17:54;;;;;;;;;;;27.90;45.00;;;;;;5053049;28;19912;-62
2022/06/19 03:20:20;;;;;;;;;;;27.90;45.00;;;;;;5052734;28;20024;-62
2022/06/19 03:22:46;;;;;;;;;;;27.90;45.00;;;;;;5051493;28;19916;-62
2022/06/19 03:25:11;;;;;;;;;;;27.90;45.00;;;;;;5052728;28;19912;-62
2022/06/19 03:27:37;;;;;;;;;;;27.90;45.00;;;;;;5052817;28;19959;-62
2022/06/19 03:30:02;;;;;;;;;;;27.80;45.10;;;;;;5052739;28;20388;-62
2022/06/19 03:32:28;;;;;;;;;;;27.90;45.20;;;;;;5052946;28;19978;-62
2022/06/19 03:34:53;;;;;;;;;;;27.80;45.10;;;;;;5052666;28;19958;-62
2022/06/19 03:37:19;;;;;;;;;;;27.90;45.00;;;;;;5052563;28;20360;-62
2022/06/19 03:39:44;;;;;;;;;;;27.80;44.90;;;;;;5052534;28;19912;-62
2022/06/19 03:42:10;;;;;;;;;;;27.80;44.90;;;;;;5052623;28;19940;-62
2022/06/19 03:44:36;;;;;;;;;;;27.80;45.10;;;;;;5051683;28;19909;-62
2022/06/19 03:47:02;;;;;;;;;;;27.80;44.90;;;;;;5052863;28;19920;-62
2022/06/19 03:49:27;;;;;;;;;;;27.80;44.90;;;;;;5072991;28;19918;-62
2022/06/19 03:51:53;;;;;;;;;;;27.80;45.10;;;;;;5091922;28;20265;-62
2022/06/19 03:54:18;;;;;;;;;;;27.80;44.90;;;;;;5076279;28;19909;-62
2022/06/19 03:56:44;;;;;;;;;;;27.80;44.90;;;;;;5076309;28;19909;-62
2022/06/19 03:59:10;;;;;;;;;;;27.80;45.00;;;;;;5075995;28;19927;-62
2022/06/19 04:01:36;;;;;;;;;;;27.80;44.90;;;;;;5076096;28;20327;-62
2022/06/19 04:04:01;;;;;;;;;;;27.80;44.90;;;;;;5076081;28;19970;-62
2022/06/19 04:06:28;;;;;;;;;;;27.70;44.90;;;;;;5076036;28;19909;-62
2022/06/19 04:08:53;;;;;;;;;;;27.70;44.80;;;;;;5075959;28;19908;-62
2022/06/19 04:11:20;;;;;;;;;;;27.70;44.90;;;;;;5075971;28;19915;-62
2022/06/19 04:13:46;;;;;;;;;;;27.70;44.80;;;;;;5075912;28;19997;-62
2022/06/19 04:16:15;;;;;;;;;;;27.70;44.80;;;;;;5057969;28;19916;-62
2022/06/19 04:18:41;;;;;;;;;;;27.70;44.90;;;;;;5076000;28;20365;-62
2022/06/19 04:21:09;;;;;;;;;;;27.70;44.90;;;;;;5075700;28;19999;-62
2022/06/19 04:23:34;;;;;;;;;;;27.70;44.90;;;;;;5057760;28;19912;-62
2022/06/19 04:26:00;;;;;;;;;;;27.60;44.90;;;;;;5075751;28;19915;-62
2022/06/19 04:28:25;;;;;;;;;;;27.60;44.80;;;;;;5075717;28;19915;-62
2022/06/19 04:30:51;;;;;;;;;;;27.60;44.90;;;;;;5091192;28;19908;-62
2022/06/19 04:33:18;;;;;;;;;;;27.60;44.90;;;;;;5075521;28;19952;-62
2022/06/19 04:35:44;;;;;;;;;;;27.60;44.90;;;;;;5075502;28;19991;-62
2022/06/19 04:38:09;;;;;;;;;;;27.60;44.80;;;;;;5075304;28;19915;-62
2022/06/19 04:40:35;;;;;;;;;;;27.60;44.90;;;;;;5075625;28;19915;-62
2022/06/19 04:43:00;;;;;;;;;;;27.60;44.80;;;;;;5075399;28;19915;-62
2022/06/19 04:45:26;;;;;;;;;;;27.60;44.80;;;;;;5075309;28;20011;-62
2022/06/19 04:47:51;;;;;;;;;;;27.60;44.80;;;;;;5075207;28;20386;-62
2022/06/19 04:50:17;;;;;;;;;;;27.60;44.90;;;;;;5075206;28;19912;-62
2022/06/19 04:52:44;;;;;;;;;;;27.60;45.00;;;;;;5074720;28;21307;-62
2022/06/19 04:55:10;;;;;;;;;;;27.60;44.90;;;;;;5075181;28;20027;-62
2022/06/19 04:57:36;;;;;;;;;;;27.60;44.90;;;;;;5075135;28;19916;-62
2022/06/19 05:00:02;;;;;;;;;;;27.60;45.50;;;;;;5074661;28;19917;-62
2022/06/19 05:02:27;;;;;;;;;;;27.60;44.80;;;;;;5074703;28;19999;-62
2022/06/19 05:04:52;;;;;;;;;;;27.60;44.80;;;;;;5074900;28;19912;-62
2022/06/19 05:07:18;;;;;;;;;;;27.60;44.80;;;;;;5074939;28;20343;-62
2022/06/19 05:09:43;;;;;;;;;;;27.50;44.90;;;;;;5074798;28;19908;-62
2022/06/19 05:12:09;;;;;;;;;;;27.50;44.80;;;;;;5074811;28;19915;-62
2022/06/19 05:14:37;;;;;;;;;;;27.50;44.90;;;;;;5074692;28;19915;-62
2022/06/19 05:17:03;;;;;;;;;;;27.50;44.80;;;;;;5074792;28;20288;-62
2022/06/19 05:19:28;;;;;;;;;;;27.50;44.80;;;;;;5074751;28;19916;-62
2022/06/19 05:21:53;;;;;;;;;;;27.50;44.80;;;;;;5074646;28;19908;-62
2022/06/19 05:24:19;;;;;;;;;;;27.50;44.80;;;;;;5074584;28;19909;-62
2022/06/19 05:26:44;;;;;;;;;;;27.50;44.80;;;;;;5074555;28;19915;-62
2022/06/19 05:29:10;;;;;;;;;;;27.60;44.80;;;;;;5074481;28;19908;-62
2022/06/19 05:31:35;;;;;;;;;;;27.50;44.80;;;;;;5074398;28;20007;-62
2022/06/19 05:34:01;;;;;;;;;;;27.50;45.50;;;;;;5074385;28;19908;-62
2022/06/19 05:36:28;;;;;;;;;;;27.50;44.80;;;;;;5056502;28;19908;-62
2022/06/19 05:38:54;;;;;;;;;;;27.50;44.80;;;;;;5089659;28;20011;-62
2022/06/19 05:41:20;;;;;;;;;;;27.50;44.80;;;;;;5074168;28;20020;-62
2022/06/19 05:43:47;;;;;;;;;;;27.50;44.80;;;;;;5074428;28;19908;-62
2022/06/19 05:46:14;;;;;;;;;;;27.50;44.80;;;;;;5056152;28;19912;-62
2022/06/19 05:48:40;;;;;;;;;;;27.50;44.80;;;;;;5074064;28;20011;-62
2022/06/19 05:51:16;;;;;;;;;;;27.50;44.90;;;;;;5074014;28;19952;-62
2022/06/19 05:53:43;;;;;;;;;;;27.50;44.80;;;;;;5056310;28;19915;-62
2022/06/19 05:56:08;;;;;;;;;;;27.50;44.80;;;;;;5074069;28;20003;-61
2022/06/19 05:58:33;;;;;;;;;;;27.40;44.90;;;;;;5073754;28;20483;-62
2022/06/19 06:00:59;;;;;;;;;;;27.50;44.90;;;;;;5073848;28;20280;-62
2022/06/19 06:03:24;;;;;;;;;;;27.40;44.90;;;;;;5055863;28;20353;-62
2022/06/19 06:05:50;;;;;;;;;;;27.50;45.00;;;;;;5073756;28;19909;-62
2022/06/19 06:08:15;;;;;;;;;;;27.40;45.00;;;;;;5073613;28;19948;-62
2022/06/19 06:10:41;;;;;;;;;;;27.40;44.90;;;;;;5073602;28;19935;-62
2022/06/19 06:13:06;;;;;;;;;;;27.40;44.90;;;;;;5072666;28;19913;-62
2022/06/19 06:15:32;;;;;;;;;;;27.40;44.90;;;;;;5073555;28;19919;-62
2022/06/19 06:17:58;;;;;;;;;;;27.40;44.90;;;;;;5073633;28;20311;-62
2022/06/19 06:20:24;;;;;;;;;;;27.40;44.90;;;;;;5073643;28;20354;-62
2022/06/19 06:22:49;;;;;;;;;;;27.40;45.00;;;;;;5055867;28;19909;-62
2022/06/19 06:25:15;;;;;;;;;;;27.40;45.00;;;;;;5073400;28;19908;-61
2022/06/19 06:27:40;;;;;;;;;;;27.40;45.00;;;;;;5088995;28;19908;-62
2022/06/19 06:30:06;;;;;;;;;;;27.40;45.10;;;;;;5073443;28;19909;-62
2022/06/19 06:32:31;;;;;;;;;;;27.40;45.00;;;;;;5073310;28;19939;-62
2022/06/19 06:34:57;;;;;;;;;;;27.40;45.00;;;;;;5055464;28;19957;-61
2022/06/19 06:37:23;;;;;;;;;;;27.40;45.00;;;;;;5055407;28;19909;-61
2022/06/19 06:39:48;;;;;;;;;;;27.40;45.00;;;;;;5073050;28;20410;-61
2022/06/19 06:42:14;;;;;;;;;;;27.30;45.00;;;;;;5073086;28;19908;-61
2022/06/19 06:44:39;;;;;;;;;;;27.30;44.90;;;;;;5088758;28;19958;-61
2022/06/19 06:47:04;;;;;;;;;;;27.40;44.90;;;;;;5072951;28;19919;-61
2022/06/19 06:49:30;;;;;;;;;;;27.40;45.00;;;;;;5073189;28;20284;-61
2022/06/19 06:51:55;;;;;;;;;;;27.30;45.00;;;;;;5073023;28;19916;-63
2022/06/19 06:54:21;;;;;;;;;;;27.40;45.00;;;;;;5073098;28;19908;-62
2022/06/19 06:56:46;;;;;;;;;;;27.30;45.00;;;;;;5073107;28;19909;-62
2022/06/19 06:59:12;;;;;;;;;;;27.30;45.00;;;;;;5072868;28;19916;-62
2022/06/19 07:01:37;;;;;;;;;;;27.40;45.10;;;;;;5088536;28;20303;-62
2022/06/19 07:04:03;;;;;;;;;;;27.30;44.90;;;;;;5055277;28;19909;-62
2022/06/19 07:06:29;;;;;;;;;;;27.30;44.90;;;;;;5072861;28;19909;-61
2022/06/19 07:08:54;;;;;;;;;;;27.30;44.90;;;;;;5042360;28;19909;-62
2022/06/19 07:11:21;;;;;;;;;;;27.30;44.90;;;;;;5052843;28;19908;-62
2022/06/19 07:13:46;;;;;;;;;;;27.30;44.90;;;;;;5052954;28;20280;-62
2022/06/19 07:16:12;;;;;;;;;;;27.30;44.80;;;;;;5052849;28;19913;-62
2022/06/19 07:18:37;;;;;;;;;;;27.30;44.70;;;;;;5052729;28;20026;-62
2022/06/19 07:21:03;;;;;;;;;;;27.30;44.80;;;;;;5052875;28;19909;-62
2022/06/19 07:23:28;;;;;;;;;;;27.30;44.70;;;;;;5053171;28;19916;-62
2022/06/19 07:25:54;;;;;;;;;;;27.30;44.70;;;;;;5056813;28;19995;-62
2022/06/19 07:28:19;;;;;;;;;;;27.30;44.70;;;;;;5056970;28;19915;-62
2022/06/19 07:30:45;;;;;;;;;;;27.30;44.70;;;;;;5056773;28;19923;-62
2022/06/19 07:33:10;;;;;;;;;;;27.30;44.80;;;;;;5056724;28;19916;-62
2022/06/19 07:35:36;;;;;;;;;;;27.30;44.80;;;;;;5056531;28;19916;-62
2022/06/19 07:38:01;;;;;;;;;;;27.30;44.70;;;;;;5060552;28;19912;-62
2022/06/19 07:40:27;;;;;;;;;;;27.30;44.70;;;;;;5076430;28;20326;-61
2022/06/19 07:42:52;;;;;;;;;;;27.30;44.60;;;;;;5076533;28;20287;-62
2022/06/19 07:45:18;;;;;;;;;;;27.30;44.60;;;;;;5076485;28;19913;-62
2022/06/19 07:50:27;;;;;;;;;;;27.30;44.60;;;;;;5076361;28;19916;-62
2022/06/19 07:52:53;;;;;;;;;;;27.30;44.60;;;;;;5076318;28;19909;-62
2022/06/19 07:55:19;;;;;;;;;;;27.30;44.60;;;;;;5076185;28;19908;-62
2022/06/19 07:57:45;;;;;;;;;;;27.30;44.60;;;;;;5076258;28;19995;-62
2022/06/19 08:00:16;;;;;;;;;;;27.40;44.70;;;;;;5076097;28;20349;-62
2022/06/19 08:02:45;;;;;;;;;;;27.40;44.70;;;;;;5076169;28;20130;-62
2022/06/19 08:05:11;;;;;;;;;;;27.40;44.60;;;;;;5076272;28;19909;-62
2022/06/19 08:07:38;;;;;;;;;;;27.40;44.60;;;;;;5074746;28;19909;-61
2022/06/19 08:10:04;;;;;;;;;;;27.40;44.50;;;;;;5058419;28;19962;-61
2022/06/19 08:12:29;;;;;;;;;;;27.40;44.70;;;;;;5076100;28;20372;-61
2022/06/19 08:14:54;;;;;;;;;;;27.40;44.70;;;;;;5075902;28;20025;-61
2022/06/19 08:17:20;;;;;;;;;;;27.40;44.60;;;;;;5075964;28;19908;-61
2022/06/19 08:19:45;;;;;;;;;;;27.30;44.60;;;;;;5075808;28;19913;-61
2022/06/19 08:22:11;;;;;;;;;;;27.40;44.70;;;;;;5075834;28;19909;-61
2022/06/19 08:24:36;;;;;;;;;;;27.40;45.30;;;;;;5075705;28;20011;-61
2022/06/19 08:27:05;;;;;;;;;;;27.40;44.70;;;;;;5075679;28;19912;-61
2022/06/19 08:29:30;;;;;;;;;;;27.40;44.80;;;;;;5075582;28;19991;-61
2022/06/19 08:31:56;;;;;;;;;;;27.40;44.70;;;;;;5075612;28;20001;-61
2022/06/19 08:34:21;;;;;;;;;;;27.40;44.50;;;;;;5075456;28;19996;-61
2022/06/19 08:36:47;;;;;;;;;;;27.40;44.60;;;;;;5074642;28;19930;-61
2022/06/19 08:39:13;;;;;;;;;;;27.40;44.70;;;;;;5057389;28;19923;-61
2022/06/19 08:41:47;;;;;;;;;;;27.40;44.70;;;;;;5075733;28;19909;-62
2022/06/19 08:44:15;;;;;;;;;;;27.40;44.70;;;;;;5075330;28;19958;-61
2022/06/19 08:46:43;;;;;;;;;;;27.40;44.70;;;;;;5075295;28;20003;-61
2022/06/19 08:49:24;;;;;;;;;;;27.40;44.70;;;;;;5075172;28;20308;-61
2022/06/19 08:51:58;;;;;;;;;;;27.40;44.70;;;;;;5057212;28;20443;-61
2022/06/19 08:54:32;;;;;;;;;;;27.40;44.70;;;;;;5075171;28;19909;-61
2022/06/19 08:57:16;;;;;;;;;;;27.40;44.70;;;;;;5057268;28;19908;-61
2022/06/19 09:00:01;;;;;;;;;;;27.40;44.70;;;;;;5075078;28;20292;-61
2022/06/19 09:02:32;;;;;;;;;;;27.40;44.90;;;;;;5056970;28;20000;-61
2022/06/19 09:08:04;;;;;;;;;;;27.40;44.70;;;;;;5081767;28;19915;-61
2022/06/19 09:10:33;;;;;;;;;;;27.40;44.80;;;;;;5074813;28;20280;-61
2022/06/19 09:13:02;;;;;;;;;;;27.40;45.10;;;;;;5057047;28;19952;-61
2022/06/19 09:15:46;;;;;;;;;;;27.40;45.00;;;;;;5057261;28;20352;-61
2022/06/19 09:18:38;;;;;;;;;;;27.40;45.00;;;;;;5074820;28;19909;-61
2022/06/19 09:21:07;;;;;;;;;;;27.40;45.10;;;;;;5071926;28;20427;-61
2022/06/19 09:23:39;;;;;;;;;;;27.40;45.30;;;;;;5074865;28;19948;-61
2022/06/19 09:26:08;;;;;;;;;;;27.40;45.30;;;;;;5056706;28;19909;-61
2022/06/19 09:28:33;;;;;;;;;;;27.30;45.40;;;;;;5056986;28;20627;-61
2022/06/19 09:31:17;;;;;;;;;;;27.30;45.50;;;;;;5074527;28;19915;-61
2022/06/19 09:34:06;;;;;;;;;;;27.30;45.60;;;;;;5074420;28;19919;-61
2022/06/19 09:36:39;;;;;;;;;;;27.30;45.80;;;;;;5045694;28;19915;-61
2022/06/19 09:39:12;;;;;;;;;;;27.20;45.70;;;;;;5056912;28;19912;-61
2022/06/19 09:41:42;;;;;;;;;;;27.20;45.80;;;;;;5074166;28;19959;-61
2022/06/19 09:44:21;;;;;;;;;;;27.20;45.80;;;;;;5056455;28;20296;-61
2022/06/19 09:47:07;;;;;;;;;;;27.20;45.90;;;;;;5074260;28;19912;-61
2022/06/19 09:49:38;;;;;;;;;;;27.20;45.80;;;;;;5056183;28;19983;-61
2022/06/19 09:52:10;;;;;;;;;;;27.20;45.70;;;;;;5056304;28;19961;-61
2022/06/19 09:54:37;;;;;;;;;;;27.20;45.80;;;;;;5056064;28;19950;-61
2022/06/19 09:57:13;;;;;;;;;;;27.20;45.80;;;;;;5074043;28;19913;-61
2022/06/19 09:59:40;;;;;;;;;;;27.20;45.70;;;;;;5055988;28;19954;-60
2022/06/19 10:02:32;;;;;;;;;;;27.30;45.70;;;;;;5073875;28;19908;-61
2022/06/19 10:04:58;;;;;;;;;;;27.30;45.60;;;;;;5070928;28;20335;-61
2022/06/19 10:07:31;;;;;;;;;;;27.30;45.60;;;;;;5056159;28;19923;-61
2022/06/19 10:10:20;;;;;;;;;;;27.30;45.60;;;;;;5055715;28;19947;-61
2022/06/19 10:12:47;;;;;;;;;;;27.30;45.60;;;;;;5044941;28;19999;-61
2022/06/19 10:15:13;;;;;;;;;;;27.20;45.50;;;;;;5073604;28;19909;-61
2022/06/19 10:17:45;;;;;;;;;;;27.30;45.60;;;;;;5055821;28;19919;-61
2022/06/19 10:20:16;;;;;;;;;;;27.20;45.60;;;;;;5073515;28;19916;-61
2022/06/19 10:22:45;;;;;;;;;;;27.20;45.60;;;;;;5073751;28;20015;-61
2022/06/19 10:25:29;;;;;;;;;;;27.30;45.50;;;;;;5073358;28;19908;-61
2022/06/19 10:27:58;;;;;;;;;;;27.40;45.50;;;;;;5073421;28;20335;-62
2022/06/19 10:30:43;;;;;;;;;;;27.40;45.30;;;;;;5073297;28;19913;-61
2022/06/19 10:33:27;;;;;;;;;;;27.40;45.40;;;;;;5055600;28;19916;-61
2022/06/19 10:35:53;;;;;;;;;;;27.40;45.30;;;;;;5055348;28;19934;-61
2022/06/19 10:38:26;;;;;;;;;;;27.40;45.50;;;;;;5055321;28;19909;-61
2022/06/19 10:40:55;;;;;;;;;;;27.40;45.10;;;;;;5073148;28;19919;-61
2022/06/19 10:43:24;;;;;;;;;;;27.40;45.40;;;;;;5073078;28;19908;-61
2022/06/19 10:45:51;;;;;;;;;;;27.50;45.30;;;;;;5073259;28;19908;-61
2022/06/19 10:48:19;;;;;;;;;;;27.50;45.40;;;;;;5073046;28;20015;-61
2022/06/19 10:50:54;;;;;;;;;;;27.50;45.40;;;;;;5073395;28;19908;-61
2022/06/19 10:53:28;;;;;;;;;;;27.50;45.30;;;;;;5055187;28;19909;-61
2022/06/19 10:56:01;;;;;;;;;;;27.50;45.30;;;;;;5073056;28;19909;-61
2022/06/19 10:58:28;;;;;;;;;;;27.50;45.30;;;;;;5054985;28;20231;-61
2022/06/19 11:00:54;;;;;;;;;;;27.40;45.20;;;;;;5073129;28;20383;-61
2022/06/19 11:06:21;;;;;;;;;;;27.40;45.40;;;;;;5057844;28;20327;-61
2022/06/19 11:08:49;;;;;;;;;;;27.50;45.40;;;;;;5072907;28;19915;-61
2022/06/19 11:11:16;;;;;;;;;;;27.50;45.30;;;;;;5088519;28;19919;-61
2022/06/19 11:13:57;;;;;;;;;;;27.50;45.50;;;;;;5055069;28;19940;-61
2022/06/19 11:16:23;;;;;;;;;;;27.50;45.50;;;;;;5054985;28;20372;-61
2022/06/19 11:18:49;;;;;;;;;;;27.50;45.40;;;;;;5072816;28;19958;-61
2022/06/19 11:21:15;;;;;;;;;;;27.50;45.40;;;;;;5072881;28;20003;-61
2022/06/19 11:23:50;;;;;;;;;;;27.50;45.50;;;;;;5054936;28;19908;-61
2022/06/19 11:26:16;;;;;;;;;;;27.50;45.40;;;;;;5072842;28;20437;-61
2022/06/19 11:28:43;;;;;;;;;;;27.50;45.40;;;;;;5072706;28;20050;-61
2022/06/19 11:31:11;;;;;;;;;;;27.50;45.40;;;;;;5072747;28;20368;-61
2022/06/19 11:33:36;;;;;;;;;;;27.50;45.30;;;;;;5054756;28;19962;-61
2022/06/19 11:36:03;;;;;;;;;;;27.50;45.40;;;;;;5055068;28;19916;-61
2022/06/19 11:38:32;;;;;;;;;;;27.50;45.40;;;;;;5072476;28;19909;-61
2022/06/19 11:40:57;;;;;;;;;;;27.50;45.40;;;;;;5054607;28;19915;-61
2022/06/19 11:43:27;;;;;;;;;;;27.50;45.40;;;;;;5072857;28;20011;-62
2022/06/19 11:45:57;;;;;;;;;;;27.50;45.30;;;;;;5061422;28;19962;-61
2022/06/19 11:48:24;;;;;;;;;;;27.40;45.60;;;;;;5087848;28;19928;-61
2022/06/19 11:50:50;;;;;;;;;;;27.40;45.60;;;;;;5072581;28;19908;-61
2022/06/19 11:53:26;;;;;;;;;;;27.40;45.60;;;;;;5054563;28;19916;-61
2022/06/19 11:56:11;;;;;;;;;;;27.40;45.70;;;;;;5072475;28;20380;-61
2022/06/19 11:58:38;;;;;;;;;;;27.40;45.60;;;;;;5072569;28;19960;-61
2022/06/19 12:01:06;;;;;;;;;;;27.40;45.60;;;;;;5054491;28;20276;-61
2022/06/19 12:03:36;;;;;;;;;;;27.50;45.70;;;;;;5054742;28;20408;-61
2022/06/19 12:06:03;;;;;;;;;;;27.50;45.50;;;;;;5054469;28;19909;-61
2022/06/19 12:08:29;;;;;;;;;;;27.50;45.50;;;;;;5054463;28;19909;-61
2022/06/19 12:10:56;;;;;;;;;;;27.50;45.40;;;;;;5088900;28;20011;-61
2022/06/19 12:13:25;;;;;;;;;;;27.50;45.40;;;;;;5075897;28;19918;-61
2022/06/19 12:15:56;;;;;;;;;;;27.50;45.30;;;;;;5058169;28;19915;-61
2022/06/19 12:18:22;;;;;;;;;;;27.50;45.30;;;;;;5075748;28;19909;-61
2022/06/19 12:21:01;;;;;;;;;;;27.50;45.30;;;;;;5075671;28;19918;-61
2022/06/19 12:23:27;;;;;;;;;;;27.50;46.10;;;;;;5075721;28;19916;-61
2022/06/19 12:25:58;;;;;;;;;;;27.50;45.20;;;;;;5075625;28;19912;-61
2022/06/19 12:28:42;;;;;;;;;;;27.50;45.40;;;;;;5058059;28;20391;-61
2022/06/19 12:31:14;;;;;;;;;;;27.50;45.30;;;;;;5075681;28;19916;-61
2022/06/19 12:33:48;;;;;;;;;;;27.50;45.50;;;;;;5075508;28;19908;-61
2022/06/19 12:36:15;;;;;;;;;;;27.40;45.40;;;;;;5075573;28;20261;-61
2022/06/19 12:38:40;;;;;;;;;;;27.40;45.50;;;;;;5057644;28;20036;-61
2022/06/19 12:41:27;;;;;;;;;;;27.40;45.60;;;;;;5075580;28;19922;-61
2022/06/19 12:44:05;;;;;;;;;;;27.40;45.50;;;;;;5057600;28;19919;-61
2022/06/19 12:46:48;;;;;;;;;;;27.40;45.60;;;;;;5075195;28;20334;-61
2022/06/19 12:49:32;;;;;;;;;;;27.40;45.40;;;;;;5075175;28;19925;-61
2022/06/19 12:51:58;;;;;;;;;;;27.40;45.40;;;;;;5075292;28;19931;-61
2022/06/19 12:54:26;;;;;;;;;;;27.40;45.50;;;;;;5075106;28;20356;-61
2022/06/19 12:57:05;;;;;;;;;;;27.40;45.50;;;;;;5075188;28;19958;-61
2022/06/19 12:59:33;;;;;;;;;;;27.40;45.30;;;;;;5075007;28;19964;-61
2022/06/19 13:02:02;;;;;;;;;;;27.50;45.40;;;;;;5075034;28;19908;-61
2022/06/19 13:04:35;;;;;;;;;;;27.40;45.20;;;;;;5056946;28;20275;-62
2022/06/19 13:07:09;;;;;;;;;;;27.40;45.20;;;;;;5075110;28;20303;-61
2022/06/19 13:09:39;;;;;;;;;;;27.40;45.70;;;;;;5074826;28;19962;-61
2022/06/19 13:12:20;;;;;;;;;;;27.50;45.30;;;;;;5057357;28;19913;-61
2022/06/19 13:14:52;;;;;;;;;;;27.40;45.30;;;;;;5056956;28;19908;-61
2022/06/19 13:17:21;;;;;;;;;;;27.50;45.30;;;;;;5075008;28;19974;-61
2022/06/19 13:19:52;;;;;;;;;;;27.40;45.30;;;;;;5074649;28;19912;-61
2022/06/19 13:22:32;;;;;;;;;;;27.40;45.10;;;;;;5080990;28;19995;-61
2022/06/19 13:25:07;;;;;;;;;;;27.40;45.30;;;;;;5074617;28;19951;-61
2022/06/19 13:27:46;;;;;;;;;;;27.40;45.30;;;;;;5056653;28;19913;-61
2022/06/19 13:30:37;;;;;;;;;;;27.40;45.30;;;;;;5074489;28;19908;-61
2022/06/19 13:33:06;;;;;;;;;;;27.40;45.30;;;;;;5071256;28;19920;-61
2022/06/19 13:35:40;;;;;;;;;;;27.40;45.20;;;;;;5074330;28;19909;-61
2022/06/19 13:38:24;;;;;;;;;;;27.40;45.30;;;;;;5074343;28;19927;-61
2022/06/19 13:41:00;;;;;;;;;;;27.40;45.20;;;;;;5074184;28;19919;-61
2022/06/19 13:43:31;;;;;;;;;;;27.40;45.20;;;;;;5056386;28;20417;-61
2022/06/19 13:45:59;;;;;;;;;;;27.40;45.10;;;;;;5074275;28;20295;-61
2022/06/19 13:48:25;;;;;;;;;;;27.40;45.10;;;;;;5056114;28;20325;-61
2022/06/19 13:50:53;;;;;;;;;;;27.40;45.20;;;;;;5074055;28;19912;-61
2022/06/19 13:53:21;;;;;;;;;;;27.40;45.30;;;;;;5056177;28;19956;-61
2022/06/19 13:55:47;;;;;;;;;;;27.40;45.30;;;;;;5073945;28;19913;-61
2022/06/19 13:58:28;;;;;;;;;;;27.40;45.10;;;;;;5073992;28;20423;-61
2022/06/19 14:00:59;;;;;;;;;;;27.40;45.30;;;;;;5074087;28;19920;-61
2022/06/19 14:04:45;;;;;;;;;;;27.40;45.40;;;;;;5073652;28;19908;-61
2022/06/19 14:06:14;;;;;;;;;;;27.40;45.40;;;;;;5058834;28;19915;-61
2022/06/19 14:08:44;;;;;;;;;;;27.40;45.50;;;;;;5089371;28;19909;-61
2022/06/19 14:11:11;;;;;;;;;;;27.40;45.40;;;;;;5055904;28;20432;-61
2022/06/19 14:13:43;;;;;;;;;;;27.40;45.30;;;;;;5073610;28;19969;-61
2022/06/19 14:16:27;;;;;;;;;;;27.40;45.40;;;;;;5055625;28;19909;-61
2022/06/19 14:18:56;;;;;;;;;;;27.30;45.30;;;;;;5073461;28;20313;-61
2022/06/19 14:21:39;;;;;;;;;;;27.30;45.30;;;;;;5073704;28;20380;-61
2022/06/19 14:24:08;;;;;;;;;;;27.30;45.30;;;;;;5073408;28;19914;-61
2022/06/19 14:26:52;;;;;;;;;;;27.40;45.30;;;;;;5073669;28;20003;-61
2022/06/19 14:29:23;;;;;;;;;;;27.40;45.40;;;;;;5073350;28;19920;-61
2022/06/19 14:31:48;;;;;;;;;;;27.30;45.30;;;;;;5073297;28;20284;-61
2022/06/19 14:34:34;;;;;;;;;;;27.30;45.30;;;;;;5072715;28;19909;-61
2022/06/19 14:37:06;;;;;;;;;;;27.30;45.30;;;;;;5073197;28;19908;-61